Time,TemperatureF,DewpointF,PressureIn,WindDirection,WindDirectionDegrees,WindSpeedMPH,WindSpeedGustMPH,Humidity,HourlyPrecipIn,Conditions,Clouds,dailyrainin,SoftwareType,DateUTC
2013-07-01 00:09:00,50.6,48.1,29.89,ENE,76,1.0,1.0,91,0.00,,,0.00,Wunderground v.1.15,2013-07-01 06:09:00,
2013-07-01 00:14:00,50.4,48.2,29.89,ENE,76,1.0,1.0,92,0.00,,,0.00,Wunderground v.1.15,2013-07-01 06:14:00,
2013-07-01 00:19:00,50.2,48.0,29.89,ENE,76,1.0,1.0,92,0.00,,,0.00,Wunderground v.1.15,2013-07-01 06:19:00,
2013-07-01 00:24:00,50.0,47.8,29.89,ENE,76,1.0,2.0,92,0.00,,,0.00,Wunderground v.1.15,2013-07-01 06:24:00,
2013-07-01 00:29:00,49.9,48.0,29.89,ENE,76,1.0,4.0,93,0.00,,,0.00,Wunderground v.1.15,2013-07-01 06:29:00,
2013-07-01 00:39:00,49.7,47.8,29.89,ENE,76,2.0,2.0,93,0.00,,,0.00,Wunderground v.1.15,2013-07-01 06:39:00,
2013-07-01 00:44:00,49.6,47.7,29.90,ENE,76,1.0,2.0,93,0.00,,,0.00,Wunderground v.1.15,2013-07-01 06:44:00,
2013-07-01 00:49:00,49.4,47.5,29.90,ENE,76,1.0,1.0,93,0.00,,,0.00,Wunderground v.1.15,2013-07-01 06:49:00,
2013-07-01 00:54:00,49.4,47.5,29.90,ENE,76,0.0,1.0,93,0.00,,,0.00,Wunderground v.1.15,2013-07-01 06:54:00,
2013-07-01 01:00:00,49.4,47.5,29.90,ENE,76,1.0,2.0,93,0.00,,,0.00,Wunderground v.1.15,2013-07-01 07:00:00,
2013-07-01 01:09:00,49.1,47.2,29.90,ENE,76,1.0,1.0,93,0.00,,,0.00,Wunderground v.1.15,2013-07-01 07:09:00,
2013-07-01 01:14:00,49.0,47.1,29.90,ENE,76,1.0,1.0,93,0.00,,,0.00,Wunderground v.1.15,2013-07-01 07:14:00,
2013-07-01 01:19:00,48.9,47.0,29.90,ENE,76,1.0,2.0,93,0.00,,,0.00,Wunderground v.1.15,2013-07-01 07:19:00,
2013-07-01 01:24:00,48.8,46.9,29.90,ENE,76,1.0,2.0,93,0.00,,,0.00,Wunderground v.1.15,2013-07-01 07:24:00,
2013-07-01 01:29:00,48.7,46.8,29.90,ENE,76,1.0,1.0,93,0.00,,,0.00,Wunderground v.1.15,2013-07-01 07:29:00,
2013-07-01 01:39:00,48.5,46.6,29.90,ENE,76,2.0,2.0,93,0.00,,,0.00,Wunderground v.1.15,2013-07-01 07:39:00,
2013-07-01 01:44:00,48.4,46.5,29.90,East,81,4.0,5.0,93,0.00,,,0.00,Wunderground v.1.15,2013-07-01 07:44:00,
2013-07-01 01:49:00,48.4,46.5,29.91,ENE,72,4.0,4.0,93,0.00,,,0.00,Wunderground v.1.15,2013-07-01 07:49:00,
2013-07-01 01:54:00,48.4,46.5,29.91,ENE,71,3.0,4.0,93,0.00,,,0.00,Wunderground v.1.15,2013-07-01 07:54:00,
2013-07-01 02:00:00,48.4,46.5,29.91,East,82,2.0,2.0,93,0.00,,,0.00,Wunderground v.1.15,2013-07-01 08:00:00,
2013-07-01 02:09:00,48.1,46.2,29.91,East,82,1.0,1.0,93,0.00,,,0.00,Wunderground v.1.15,2013-07-01 08:09:00,
2013-07-01 02:19:00,47.8,45.9,29.91,East,82,1.0,2.0,93,0.00,,,0.00,Wunderground v.1.15,2013-07-01 08:19:00,
2013-07-01 02:24:00,47.8,45.9,29.91,East,96,2.0,2.0,93,0.00,,,0.00,Wunderground v.1.15,2013-07-01 08:24:00,
2013-07-01 02:29:00,47.8,45.9,29.92,ENE,78,2.0,5.0,93,0.00,,,0.00,Wunderground v.1.15,2013-07-01 08:29:00,
2013-07-01 02:39:00,47.8,45.6,29.92,East,86,3.0,3.0,92,0.00,,,0.00,Wunderground v.1.15,2013-07-01 08:39:00,
2013-07-01 02:44:00,47.7,45.5,29.92,ENE,68,3.0,3.0,92,0.00,,,0.00,Wunderground v.1.15,2013-07-01 08:44:00,
2013-07-01 02:54:00,47.6,45.4,29.92,East,92,3.0,4.0,92,0.00,,,0.00,Wunderground v.1.15,2013-07-01 08:54:00,
2013-07-01 03:00:00,47.4,45.2,29.92,ENE,78,2.0,2.0,92,0.00,,,0.00,Wunderground v.1.15,2013-07-01 09:00:00,
2013-07-01 03:09:00,47.1,44.9,29.92,East,88,2.0,3.0,92,0.00,,,0.01,Wunderground v.1.15,2013-07-01 09:09:00,
2013-07-01 03:19:00,46.9,44.7,29.92,East,87,2.0,2.0,92,0.00,,,0.01,Wunderground v.1.15,2013-07-01 09:19:00,
2013-07-01 03:24:00,46.9,44.7,29.92,East,89,3.0,5.0,92,0.00,,,0.01,Wunderground v.1.15,2013-07-01 09:24:00,
2013-07-01 03:29:00,46.8,44.6,29.92,East,81,5.0,5.0,92,0.00,,,0.01,Wunderground v.1.15,2013-07-01 09:29:00,
2013-07-01 03:34:00,46.8,44.6,29.92,East,84,5.0,6.0,92,0.00,,,0.01,Wunderground v.1.15,2013-07-01 09:34:00,
2013-07-01 03:39:00,46.7,44.5,29.92,ENE,72,4.0,7.0,92,0.00,,,0.01,Wunderground v.1.15,2013-07-01 09:39:00,
2013-07-01 03:49:00,46.6,44.4,29.92,ESE,109,4.0,4.0,92,0.00,,,0.01,Wunderground v.1.15,2013-07-01 09:49:00,
2013-07-01 03:54:00,46.5,44.0,29.92,East,83,4.0,4.0,91,0.00,,,0.01,Wunderground v.1.15,2013-07-01 09:54:00,
2013-07-01 04:00:00,46.5,44.0,29.92,ENE,74,4.0,4.0,91,0.00,,,0.01,Wunderground v.1.15,2013-07-01 10:00:00,
2013-07-01 04:09:00,46.2,44.0,29.92,ENE,64,4.0,4.0,92,0.00,,,0.01,Wunderground v.1.15,2013-07-01 10:09:00,
2013-07-01 04:14:00,46.1,43.9,29.93,ENE,74,3.0,4.0,92,0.00,,,0.01,Wunderground v.1.15,2013-07-01 10:14:00,
2013-07-01 04:19:00,46.0,43.5,29.92,ENE,72,3.0,3.0,91,0.00,,,0.01,Wunderground v.1.15,2013-07-01 10:19:00,
2013-07-01 04:24:00,45.9,43.7,29.92,East,86,4.0,6.0,92,0.00,,,0.01,Wunderground v.1.15,2013-07-01 10:24:00,
2013-07-01 04:34:00,46.0,43.5,29.92,ENE,63,7.0,7.0,91,0.00,,,0.01,Wunderground v.1.15,2013-07-01 10:34:00,
2013-07-01 04:44:00,45.9,43.4,29.92,ENE,69,6.0,6.0,91,0.00,,,0.01,Wunderground v.1.15,2013-07-01 10:44:00,
2013-07-01 04:49:00,45.9,43.4,29.92,East,82,6.0,6.0,91,0.00,,,0.01,Wunderground v.1.15,2013-07-01 10:49:00,
2013-07-01 04:54:00,45.8,43.3,29.93,East,89,6.0,6.0,91,0.00,,,0.01,Wunderground v.1.15,2013-07-01 10:54:00,
2013-07-01 05:00:00,45.8,43.6,29.93,ENE,71,5.0,7.0,92,0.00,,,0.01,Wunderground v.1.15,2013-07-01 11:00:00,
2013-07-01 05:09:00,45.9,43.4,29.93,East,89,6.0,6.0,91,0.00,,,0.01,Wunderground v.1.15,2013-07-01 11:09:00,
2013-07-01 05:14:00,45.8,43.3,29.93,East,89,4.0,6.0,91,0.00,,,0.01,Wunderground v.1.15,2013-07-01 11:14:00,
2013-07-01 05:19:00,45.7,43.2,29.93,NE,46,2.0,3.0,91,0.00,,,0.01,Wunderground v.1.15,2013-07-01 11:19:00,
2013-07-01 05:24:00,45.8,43.6,29.94,East,88,2.0,3.0,92,0.00,,,0.01,Wunderground v.1.15,2013-07-01 11:24:00,
2013-07-01 05:29:00,45.7,43.5,29.94,ENE,69,2.0,2.0,92,0.00,,,0.01,Wunderground v.1.15,2013-07-01 11:29:00,
2013-07-01 05:39:00,45.8,43.3,29.94,East,90,4.0,4.0,91,0.00,,,0.01,Wunderground v.1.15,2013-07-01 11:39:00,
2013-07-01 05:44:00,45.6,43.1,29.95,East,95,3.0,4.0,91,0.00,,,0.01,Wunderground v.1.15,2013-07-01 11:44:00,
2013-07-01 05:54:00,45.4,43.2,29.95,SE,139,3.0,3.0,92,0.00,,,0.01,Wunderground v.1.15,2013-07-01 11:54:00,
2013-07-01 06:00:00,45.4,43.2,29.95,East,84,2.0,2.0,92,0.00,,,0.01,Wunderground v.1.15,2013-07-01 12:00:00,
2013-07-01 06:09:00,45.6,43.4,29.96,East,88,2.0,2.0,92,0.00,,,0.01,Wunderground v.1.15,2013-07-01 12:09:00,
2013-07-01 06:14:00,45.7,43.5,29.96,East,97,3.0,3.0,92,0.00,,,0.01,Wunderground v.1.15,2013-07-01 12:14:00,
2013-07-01 06:19:00,45.7,43.5,29.96,ESE,123,2.0,3.0,92,0.00,,,0.01,Wunderground v.1.15,2013-07-01 12:19:00,
2013-07-01 06:29:00,45.5,43.6,29.97,ESE,115,1.0,1.0,93,0.00,,,0.01,Wunderground v.1.15,2013-07-01 12:29:00,
2013-07-01 06:39:00,45.3,43.4,29.98,East,88,0.0,1.0,93,0.00,,,0.01,Wunderground v.1.15,2013-07-01 12:39:00,
2013-07-01 06:44:00,45.9,44.3,29.98,East,80,1.0,1.0,94,0.00,,,0.01,Wunderground v.1.15,2013-07-01 12:44:00,
2013-07-01 06:49:00,46.3,44.7,29.98,East,94,2.0,2.0,94,0.00,,,0.01,Wunderground v.1.15,2013-07-01 12:49:00,
2013-07-01 06:54:00,46.8,45.2,29.97,ENE,78,2.0,2.0,94,0.00,,,0.01,Wunderground v.1.15,2013-07-01 12:54:00,
2013-07-01 06:59:00,47.4,45.8,29.97,ENE,76,2.0,2.0,94,0.00,,,0.01,Wunderground v.1.15,2013-07-01 12:59:00,
2013-07-01 07:04:00,47.8,45.9,29.97,East,80,2.0,2.0,93,0.00,,,0.01,Wunderground v.1.15,2013-07-01 13:04:00,
2013-07-01 07:14:00,48.7,46.5,29.98,ENE,59,1.0,2.0,92,0.00,,,0.01,Wunderground v.1.15,2013-07-01 13:14:00,
2013-07-01 07:19:00,49.0,46.8,29.97,ENE,76,1.0,2.0,92,0.00,,,0.01,Wunderground v.1.15,2013-07-01 13:19:00,
2013-07-01 07:24:00,49.3,46.8,29.97,ENE,66,2.0,2.0,91,0.00,,,0.01,Wunderground v.1.15,2013-07-01 13:24:00,
2013-07-01 07:29:00,49.4,46.9,29.97,East,82,3.0,3.0,91,0.00,,,0.01,Wunderground v.1.15,2013-07-01 13:29:00,
2013-07-01 07:39:00,49.9,47.4,29.97,East,90,1.0,1.0,91,0.00,,,0.01,Wunderground v.1.15,2013-07-01 13:39:00,
2013-07-01 07:44:00,50.2,47.7,29.97,East,98,1.0,1.0,91,0.00,,,0.01,Wunderground v.1.15,2013-07-01 13:44:00,
2013-07-01 07:49:00,50.2,47.4,29.97,ENE,78,2.0,3.0,90,0.00,,,0.01,Wunderground v.1.15,2013-07-01 13:49:00,
2013-07-01 07:54:00,50.1,47.3,29.97,East,93,3.0,3.0,90,0.00,,,0.01,Wunderground v.1.15,2013-07-01 13:54:00,
2013-07-01 08:00:00,50.0,47.2,29.97,East,90,3.0,3.0,90,0.00,,,0.01,Wunderground v.1.15,2013-07-01 14:00:00,
2013-07-01 08:09:00,50.3,47.8,29.97,NE,41,1.0,1.0,91,0.00,,,0.01,Wunderground v.1.15,2013-07-01 14:09:00,
2013-07-01 08:14:00,50.7,47.9,29.97,ENE,68,1.0,1.0,90,0.00,,,0.01,Wunderground v.1.15,2013-07-01 14:14:00,
2013-07-01 08:24:00,51.5,48.7,29.97,ENE,71,0.0,1.0,90,0.00,,,0.01,Wunderground v.1.15,2013-07-01 14:24:00,
2013-07-01 08:29:00,52.3,48.9,29.97,ENE,71,1.0,2.0,88,0.00,,,0.01,Wunderground v.1.15,2013-07-01 14:29:00,
2013-07-01 08:34:00,52.9,49.4,29.96,ENE,71,2.0,3.0,88,0.00,,,0.01,Wunderground v.1.15,2013-07-01 14:34:00,
2013-07-01 08:44:00,53.9,50.1,29.95,ENE,73,2.0,2.0,87,0.00,,,0.01,Wunderground v.1.15,2013-07-01 14:44:00,
2013-07-01 08:49:00,54.6,50.5,29.95,ENE,73,2.0,2.0,86,0.00,,,0.01,Wunderground v.1.15,2013-07-01 14:49:00,
2013-07-01 08:54:00,55.2,50.4,29.95,ENE,73,2.0,2.0,84,0.00,,,0.01,Wunderground v.1.15,2013-07-01 14:54:00,
2013-07-01 09:00:00,56.3,50.9,29.94,East,90,2.0,2.0,82,0.00,,,0.01,Wunderground v.1.15,2013-07-01 15:00:00,
2013-07-01 09:09:00,57.7,51.2,29.94,East,96,3.0,3.0,79,0.00,,,0.01,Wunderground v.1.15,2013-07-01 15:09:00,
2013-07-01 09:14:00,58.4,51.6,29.94,ENE,61,2.0,3.0,78,0.00,,,0.01,Wunderground v.1.15,2013-07-01 15:14:00,
2013-07-01 09:24:00,59.4,51.5,29.93,NE,34,2.0,2.0,75,0.00,,,0.01,Wunderground v.1.15,2013-07-01 15:24:00,
2013-07-01 09:29:00,59.8,50.4,29.93,ENE,73,1.0,1.0,71,0.00,,,0.01,Wunderground v.1.15,2013-07-01 15:29:00,
2013-07-01 09:34:00,60.7,50.5,29.93,East,79,2.0,7.0,69,0.00,,,0.01,Wunderground v.1.15,2013-07-01 15:34:00,
2013-07-01 09:39:00,60.7,50.5,29.92,ENE,76,2.0,5.0,69,0.00,,,0.01,Wunderground v.1.15,2013-07-01 15:39:00,
2013-07-01 09:49:00,62.3,51.2,29.92,NNE,19,2.0,2.0,67,0.00,,,0.01,Wunderground v.1.15,2013-07-01 15:49:00,
2013-07-01 09:54:00,63.2,50.4,29.92,SE,137,1.0,2.0,63,0.00,,,0.01,Wunderground v.1.15,2013-07-01 15:54:00,
2013-07-01 10:00:00,63.6,50.3,29.92,NNE,29,1.0,5.0,62,0.00,,,0.01,Wunderground v.1.15,2013-07-01 16:00:00,
2013-07-01 10:09:00,62.7,47.2,29.92,ENE,76,1.0,1.0,57,0.00,,,0.01,Wunderground v.1.15,2013-07-01 16:09:00,
2013-07-01 10:14:00,62.2,49.0,29.92,ENE,76,0.0,1.0,62,0.00,,,0.01,Wunderground v.1.15,2013-07-01 16:14:00,
2013-07-01 10:19:00,61.7,50.2,29.92,ENE,76,0.0,0.0,66,0.00,,,0.01,Wunderground v.1.15,2013-07-01 16:19:00,
2013-07-01 10:29:00,62.0,50.9,29.92,ENE,76,0.0,0.0,67,0.00,,,0.01,Wunderground v.1.15,2013-07-01 16:29:00,
2013-07-01 10:34:00,61.8,50.7,29.92,ENE,76,0.0,0.0,67,0.00,,,0.01,Wunderground v.1.15,2013-07-01 16:34:00,
2013-07-01 10:39:00,60.8,53.2,29.92,ENE,76,0.0,0.0,76,0.00,,,0.01,Wunderground v.1.15,2013-07-01 16:39:00,
2013-07-01 10:44:00,59.1,52.9,29.92,ENE,76,0.0,0.0,80,0.00,,,0.01,Wunderground v.1.15,2013-07-01 16:44:00,
2013-07-01 10:49:00,59.6,53.1,29.92,ENE,76,0.0,0.0,79,0.00,,,0.01,Wunderground v.1.15,2013-07-01 16:49:00,
2013-07-01 10:55:00,61.4,50.3,29.91,ENE,76,1.0,1.0,67,0.00,,,0.01,Wunderground v.1.15,2013-07-01 16:55:00,
2013-07-01 11:00:00,61.6,50.9,29.91,ENE,76,1.0,1.0,68,0.00,,,0.01,Wunderground v.1.15,2013-07-01 17:00:00,
2013-07-01 11:09:00,64.1,51.7,29.91,ENE,76,0.0,2.0,64,0.00,,,0.01,Wunderground v.1.15,2013-07-01 17:09:00,
2013-07-01 11:15:00,64.0,52.0,29.91,ENE,76,1.0,2.0,65,0.00,,,0.01,Wunderground v.1.15,2013-07-01 17:15:00,
2013-07-01 11:24:00,64.3,47.8,29.90,NNW,332,1.0,3.0,55,0.00,,,0.01,Wunderground v.1.15,2013-07-01 17:24:00,
2013-07-01 11:29:00,64.9,47.4,29.90,NNW,341,2.0,2.0,53,0.00,,,0.01,Wunderground v.1.15,2013-07-01 17:29:00,
2013-07-01 11:35:00,65.1,47.0,29.90,NNW,341,1.0,2.0,52,0.00,,,0.01,Wunderground v.1.15,2013-07-01 17:35:00,
2013-07-01 11:49:00,67.4,47.6,29.90,NNW,331,1.0,1.0,49,0.00,,,0.01,Wunderground v.1.15,2013-07-01 17:49:00,
2013-07-01 11:54:00,67.6,46.6,29.89,NNW,332,0.0,2.0,47,0.00,,,0.01,Wunderground v.1.15,2013-07-01 17:54:00,
2013-07-01 12:00:00,66.5,47.3,29.89,NNW,328,1.0,1.0,50,0.00,,,0.01,Wunderground v.1.15,2013-07-01 18:00:00,
2013-07-01 12:10:00,67.5,47.7,29.89,NNW,333,1.0,3.0,49,0.00,,,0.01,Wunderground v.1.15,2013-07-01 18:10:00,
2013-07-01 12:19:00,66.3,47.1,29.89,NNW,346,3.0,3.0,50,0.00,,,0.01,Wunderground v.1.15,2013-07-01 18:19:00,
2013-07-01 12:24:00,66.9,49.2,29.90,NW,325,2.0,3.0,53,0.00,,,0.01,Wunderground v.1.15,2013-07-01 18:24:00,
2013-07-01 12:29:00,67.5,47.7,29.90,NW,321,1.0,1.0,49,0.00,,,0.01,Wunderground v.1.15,2013-07-01 18:29:00,
2013-07-01 12:39:00,66.6,46.3,29.89,NW,325,4.0,4.0,48,0.00,,,0.01,Wunderground v.1.15,2013-07-01 18:39:00,
2013-07-01 12:44:00,67.3,46.9,29.89,NNW,331,4.0,5.0,48,0.00,,,0.01,Wunderground v.1.15,2013-07-01 18:44:00,
2013-07-01 12:49:00,66.9,47.1,29.89,NNW,331,2.0,2.0,49,0.00,,,0.01,Wunderground v.1.15,2013-07-01 18:49:00,
2013-07-01 12:54:00,67.2,47.4,29.88,NNE,18,2.0,2.0,49,0.00,,,0.01,Wunderground v.1.15,2013-07-01 18:54:00,
2013-07-01 13:00:00,67.5,47.7,29.89,NNW,332,3.0,5.0,49,0.00,,,0.01,Wunderground v.1.15,2013-07-01 19:00:00,
2013-07-01 13:09:00,67.6,47.8,29.89,SSW,192,3.0,5.0,49,0.00,,,0.01,Wunderground v.1.15,2013-07-01 19:09:00,
2013-07-01 13:14:00,67.5,47.1,29.89,NNW,345,1.0,5.0,48,0.00,,,0.01,Wunderground v.1.15,2013-07-01 19:14:00,
2013-07-01 13:24:00,66.9,44.9,29.90,ENE,74,1.0,2.0,45,0.00,,,0.01,Wunderground v.1.15,2013-07-01 19:24:00,
2013-07-01 13:29:00,66.7,44.1,29.91,NNW,331,1.0,1.0,44,0.00,,,0.01,Wunderground v.1.15,2013-07-01 19:29:00,
2013-07-01 13:39:00,64.7,48.6,29.92,SE,134,3.0,3.0,56,0.00,,,0.01,Wunderground v.1.15,2013-07-01 19:39:00,
2013-07-01 13:44:00,62.8,50.0,29.92,West,261,4.0,4.0,63,0.00,,,0.01,Wunderground v.1.15,2013-07-01 19:44:00,
2013-07-01 13:49:00,61.4,49.1,29.93,SW,223,4.0,4.0,64,0.00,,,0.01,Wunderground v.1.15,2013-07-01 19:49:00,
2013-07-01 14:00:00,59.6,47.0,29.94,East,94,4.0,4.0,63,0.00,,,0.01,Wunderground v.1.15,2013-07-01 20:00:00,
2013-07-01 14:09:00,58.2,46.9,29.95,ESE,106,5.0,10.0,66,0.00,,,0.01,Wunderground v.1.15,2013-07-01 20:09:00,
2013-07-01 14:14:00,58.6,48.1,29.94,SE,146,4.0,10.0,68,0.00,,,0.01,Wunderground v.1.15,2013-07-01 20:14:00,
2013-07-01 14:19:00,58.6,46.5,29.94,ENE,67,5.0,9.0,64,0.00,,,0.01,Wunderground v.1.15,2013-07-01 20:19:00,
2013-07-01 14:24:00,57.7,46.0,29.94,NE,36,7.0,9.0,65,0.00,,,0.01,Wunderground v.1.15,2013-07-01 20:24:00,
2013-07-01 14:29:00,57.8,46.1,29.94,East,94,9.0,9.0,65,0.00,,,0.01,Wunderground v.1.15,2013-07-01 20:29:00,
2013-07-01 14:35:00,58.2,46.5,29.93,East,91,8.0,9.0,65,0.00,,,0.01,Wunderground v.1.15,2013-07-01 20:35:00,
2013-07-01 14:44:00,61.0,47.0,29.93,ESE,105,5.0,9.0,60,0.00,,,0.01,Wunderground v.1.15,2013-07-01 20:44:00,
2013-07-01 14:49:00,61.8,45.9,29.93,ENE,67,5.0,5.0,56,0.00,,,0.01,Wunderground v.1.15,2013-07-01 20:49:00,
2013-07-01 14:54:00,62.1,46.2,29.93,NE,38,6.0,6.0,56,0.00,,,0.01,Wunderground v.1.15,2013-07-01 20:54:00,
2013-07-01 15:00:00,62.7,46.8,29.93,ENE,76,5.0,5.0,56,0.00,,,0.01,Wunderground v.1.15,2013-07-01 21:00:00,
2013-07-01 15:09:00,63.1,48.1,29.93,NE,49,2.0,3.0,58,0.00,,,0.01,Wunderground v.1.15,2013-07-01 21:09:00,
2013-07-01 15:15:00,62.5,48.0,29.93,NNE,15,2.0,3.0,59,0.00,,,0.01,Wunderground v.1.15,2013-07-01 21:15:00,
2013-07-01 15:20:00,62.5,49.7,29.94,SSE,160,3.0,3.0,63,0.00,,,0.01,Wunderground v.1.15,2013-07-01 21:20:00,
2013-07-01 15:29:00,63.8,50.1,29.93,NE,40,3.0,3.0,61,0.00,,,0.01,Wunderground v.1.15,2013-07-01 21:29:00,
2013-07-01 15:35:00,64.3,50.1,29.93,ENE,58,4.0,7.0,60,0.00,,,0.01,Wunderground v.1.15,2013-07-01 21:35:00,
2013-07-01 15:44:00,65.1,49.5,29.92,NE,47,5.0,5.0,57,0.00,,,0.01,Wunderground v.1.15,2013-07-01 21:44:00,
2013-07-01 15:54:00,66.5,48.3,29.91,South,178,2.0,4.0,52,0.00,,,0.01,Wunderground v.1.15,2013-07-01 21:54:00,
2013-07-01 16:00:00,66.6,46.8,29.91,ENE,65,3.0,9.0,49,0.00,,,0.01,Wunderground v.1.15,2013-07-01 22:00:00,
2013-07-01 16:09:00,66.9,48.7,29.90,ENE,57,3.0,4.0,52,0.00,,,0.01,Wunderground v.1.15,2013-07-01 22:09:00,
2013-07-01 16:15:00,66.7,45.8,29.90,NE,55,4.0,7.0,47,0.00,,,0.01,Wunderground v.1.15,2013-07-01 22:15:00,
2013-07-01 16:25:00,66.9,46.0,29.90,East,86,9.0,11.0,47,0.00,,,0.01,Wunderground v.1.15,2013-07-01 22:25:00,
2013-07-01 16:30:00,67.3,45.8,29.90,NE,49,8.0,8.0,46,0.00,,,0.01,Wunderground v.1.15,2013-07-01 22:30:00,
2013-07-01 16:40:00,68.3,45.5,29.91,SSE,161,6.0,6.0,44,0.00,,,0.01,Wunderground v.1.15,2013-07-01 22:40:00,
2013-07-01 16:45:00,68.3,44.3,29.91,ESE,107,6.0,10.0,42,0.00,,,0.01,Wunderground v.1.15,2013-07-01 22:45:00,
2013-07-01 16:54:00,67.2,43.9,29.90,NE,39,8.0,10.0,43,0.00,,,0.01,Wunderground v.1.15,2013-07-01 22:54:00,
2013-07-01 17:00:00,66.8,43.6,29.90,SE,133,6.0,6.0,43,0.00,,,0.01,Wunderground v.1.15,2013-07-01 23:00:00,
2013-07-01 17:10:00,66.3,43.1,29.91,ENE,74,5.0,9.0,43,0.00,,,0.01,Wunderground v.1.15,2013-07-01 23:10:00,
2013-07-01 17:15:00,66.2,44.2,29.91,SSE,167,4.0,9.0,45,0.00,,,0.01,Wunderground v.1.15,2013-07-01 23:15:00,
2013-07-01 17:24:00,66.3,45.5,29.91,NNE,28,4.0,5.0,47,0.00,,,0.01,Wunderground v.1.15,2013-07-01 23:24:00,
2013-07-01 17:29:00,66.4,45.0,29.91,ESE,105,4.0,4.0,46,0.00,,,0.01,Wunderground v.1.15,2013-07-01 23:29:00,
2013-07-01 17:39:00,66.7,46.9,29.91,NE,52,3.0,3.0,49,0.00,,,0.01,Wunderground v.1.15,2013-07-01 23:39:00,
2013-07-01 17:44:00,66.0,47.9,29.91,ENE,74,3.0,10.0,52,0.00,,,0.01,Wunderground v.1.15,2013-07-01 23:44:00,
2013-07-01 17:49:00,65.1,47.5,29.91,NE,43,4.0,4.0,53,0.00,,,0.01,Wunderground v.1.15,2013-07-01 23:49:00,
2013-07-01 17:54:00,64.2,47.2,29.92,ENE,57,7.0,7.0,54,0.00,,,0.01,Wunderground v.1.15,2013-07-01 23:54:00,
2013-07-01 18:00:00,63.9,47.9,29.91,East,88,7.0,7.0,56,0.00,,,0.01,Wunderground v.1.15,2013-07-02 00:00:00,
2013-07-01 18:09:00,63.6,48.5,29.92,NNW,344,7.0,7.0,58,0.00,,,0.01,Wunderground v.1.15,2013-07-02 00:09:00,
2013-07-01 18:19:00,63.5,48.5,29.92,East,82,5.0,13.0,58,0.00,,,0.01,Wunderground v.1.15,2013-07-02 00:19:00,
2013-07-01 18:24:00,63.3,49.2,29.92,North,11,5.0,13.0,60,0.00,,,0.01,Wunderground v.1.15,2013-07-02 00:24:00,
2013-07-01 18:30:00,63.3,49.2,29.92,ESE,105,5.0,8.0,60,0.00,,,0.01,Wunderground v.1.15,2013-07-02 00:30:00,
2013-07-01 18:35:00,63.0,49.3,29.93,ENE,63,5.0,15.0,61,0.00,,,0.01,Wunderground v.1.15,2013-07-02 00:35:00,
2013-07-01 18:40:00,62.8,49.6,29.93,WNW,288,4.0,4.0,62,0.00,,,0.01,Wunderground v.1.15,2013-07-02 00:40:00,
2013-07-01 18:50:00,62.1,49.4,29.93,ENE,73,4.0,4.0,63,0.00,,,0.01,Wunderground v.1.15,2013-07-02 00:50:00,
2013-07-01 19:00:00,61.9,49.2,29.94,East,83,5.0,8.0,63,0.00,,,0.01,Wunderground v.1.15,2013-07-02 01:00:00,
2013-07-01 19:10:00,61.6,48.9,29.93,NE,39,6.0,6.0,63,0.00,,,0.01,Wunderground v.1.15,2013-07-02 01:10:00,
2013-07-01 19:15:00,61.5,49.2,29.93,ENE,74,5.0,8.0,64,0.00,,,0.01,Wunderground v.1.15,2013-07-02 01:15:00,
2013-07-01 19:25:00,61.0,48.7,29.93,NE,39,4.0,4.0,64,0.00,,,0.01,Wunderground v.1.15,2013-07-02 01:25:00,
2013-07-01 19:34:00,60.8,48.5,29.93,SSE,151,7.0,17.0,64,0.00,,,0.01,Wunderground v.1.15,2013-07-02 01:34:00,
2013-07-01 19:39:00,60.6,47.9,29.93,East,90,7.0,17.0,63,0.00,,,0.01,Wunderground v.1.15,2013-07-02 01:39:00,
2013-07-01 19:44:00,60.4,48.2,29.94,East,84,6.0,17.0,64,0.00,,,0.01,Wunderground v.1.15,2013-07-02 01:44:00,
2013-07-01 19:50:00,60.3,48.1,29.94,NE,34,4.0,4.0,64,0.00,,,0.01,Wunderground v.1.15,2013-07-02 01:50:00,
2013-07-01 19:55:00,60.2,48.4,29.95,SE,132,4.0,17.0,65,0.00,,,0.01,Wunderground v.1.15,2013-07-02 01:55:00,
2013-07-01 20:00:00,60.0,48.6,29.95,NNE,28,3.0,3.0,66,0.00,,,0.01,Wunderground v.1.15,2013-07-02 02:00:00,
2013-07-01 20:09:00,59.8,48.8,29.95,ENE,77,5.0,5.0,67,0.00,,,0.01,Wunderground v.1.15,2013-07-02 02:09:00,
2013-07-01 20:14:00,59.6,49.0,29.95,East,82,5.0,5.0,68,0.00,,,0.01,Wunderground v.1.15,2013-07-02 02:14:00,
2013-07-01 20:20:00,59.4,49.2,29.94,East,90,6.0,8.0,69,0.00,,,0.01,Wunderground v.1.15,2013-07-02 02:20:00,
2013-07-01 20:25:00,59.3,49.1,29.94,ENE,69,7.0,8.0,69,0.00,,,0.01,Wunderground v.1.15,2013-07-02 02:25:00,
2013-07-01 20:34:00,58.9,49.1,29.95,East,90,7.0,16.0,70,0.00,,,0.01,Wunderground v.1.15,2013-07-02 02:34:00,
2013-07-01 20:40:00,58.8,49.0,29.95,East,91,6.0,16.0,70,0.00,,,0.01,Wunderground v.1.15,2013-07-02 02:40:00,
2013-07-01 20:50:00,58.5,49.1,29.96,ENE,69,6.0,16.0,71,0.00,,,0.01,Wunderground v.1.15,2013-07-02 02:50:00,
2013-07-01 21:00:00,58.3,49.7,29.97,East,88,5.0,5.0,73,0.00,,,0.01,Wunderground v.1.15,2013-07-02 03:00:00,
2013-07-01 21:09:00,58.1,49.9,29.97,ENE,73,5.0,5.0,74,0.00,,,0.01,Wunderground v.1.15,2013-07-02 03:09:00,
2013-07-01 21:14:00,58.1,49.9,29.97,ENE,68,6.0,7.0,74,0.00,,,0.01,Wunderground v.1.15,2013-07-02 03:14:00,
2013-07-01 21:20:00,58.2,50.0,29.97,NE,41,6.0,6.0,74,0.00,,,0.01,Wunderground v.1.15,2013-07-02 03:20:00,
2013-07-01 21:29:00,58.2,50.0,29.98,East,87,5.0,7.0,74,0.00,,,0.01,Wunderground v.1.15,2013-07-02 03:29:00,
2013-07-01 21:34:00,58.2,50.0,29.99,East,83,6.0,8.0,74,0.00,,,0.01,Wunderground v.1.15,2013-07-02 03:34:00,
2013-07-01 21:40:00,58.2,50.0,29.99,NE,44,6.0,15.0,74,0.00,,,0.01,Wunderground v.1.15,2013-07-02 03:40:00,
2013-07-01 21:45:00,58.1,49.5,29.99,ENE,78,6.0,15.0,73,0.00,,,0.01,Wunderground v.1.15,2013-07-02 03:45:00,
2013-07-01 21:50:00,58.1,49.5,30.00,East,97,6.0,15.0,73,0.00,,,0.01,Wunderground v.1.15,2013-07-02 03:50:00,
2013-07-01 22:00:00,58.1,49.1,30.00,SE,124,5.0,8.0,72,0.00,,,0.01,Wunderground v.1.15,2013-07-02 04:00:00,
2013-07-01 22:05:00,58.1,49.1,30.01,ENE,67,6.0,8.0,72,0.00,,,0.01,Wunderground v.1.15,2013-07-02 04:05:00,
2013-07-01 22:10:00,58.1,49.1,30.01,ESE,111,5.0,7.0,72,0.00,,,0.01,Wunderground v.1.15,2013-07-02 04:10:00,
2013-07-01 22:15:00,58.1,49.1,30.01,East,91,5.0,7.0,72,0.00,,,0.01,Wunderground v.1.15,2013-07-02 04:15:00,
2013-07-01 22:20:00,58.1,49.1,30.02,ESE,123,5.0,5.0,72,0.00,,,0.01,Wunderground v.1.15,2013-07-02 04:20:00,
2013-07-01 22:25:00,57.9,49.3,30.03,NE,40,3.0,5.0,73,0.00,,,0.01,Wunderground v.1.15,2013-07-02 04:25:00,
2013-07-01 22:29:00,57.3,50.8,30.03,NE,40,1.0,1.0,79,0.00,,,0.02,Wunderground v.1.15,2013-07-02 04:29:00,
2013-07-01 22:35:00,56.2,51.1,30.04,NE,40,0.0,16.0,83,0.16,,,0.03,Wunderground v.1.15,2013-07-02 04:35:00,
2013-07-01 22:45:00,54.7,51.2,30.03,NE,40,0.0,16.0,88,0.28,,,0.06,Wunderground v.1.15,2013-07-02 04:45:00,
2013-07-01 22:50:00,54.2,51.0,30.03,NE,40,0.0,16.0,89,0.13,,,0.07,Wunderground v.1.15,2013-07-02 04:50:00,
2013-07-01 22:55:00,53.9,50.7,30.03,NE,40,0.0,16.0,89,0.06,,,0.07,Wunderground v.1.15,2013-07-02 04:55:00,
2013-07-01 23:00:00,53.8,51.2,29.99,NE,40,0.0,1.0,91,0.04,,,0.07,Wunderground v.1.15,2013-07-02 05:00:00,
2013-07-01 23:10:00,53.6,50.4,30.00,East,87,4.0,4.0,89,0.04,,,0.08,Wunderground v.1.15,2013-07-02 05:10:00,
2013-07-01 23:15:00,53.9,49.8,30.01,ENE,61,3.0,4.0,86,0.04,,,0.08,Wunderground v.1.15,2013-07-02 05:15:00,
2013-07-01 23:20:00,54.0,49.9,30.01,ENE,63,2.0,2.0,86,0.00,,,0.08,Wunderground v.1.15,2013-07-02 05:20:00,
2013-07-01 23:25:00,53.4,49.9,30.02,ENE,63,1.0,2.0,88,0.00,,,0.08,Wunderground v.1.15,2013-07-02 05:25:00,
2013-07-01 23:30:00,52.8,49.9,30.02,ENE,64,0.0,4.0,90,0.00,,,0.08,Wunderground v.1.15,2013-07-02 05:30:00,
2013-07-01 23:40:00,52.1,49.6,30.02,ENE,65,1.0,1.0,91,0.00,,,0.08,Wunderground v.1.15,2013-07-02 05:40:00,
2013-07-01 23:45:00,51.9,49.4,30.01,ENE,66,0.0,14.0,91,0.00,,,0.08,Wunderground v.1.15,2013-07-02 05:45:00,
2013-07-01 23:50:00,51.7,49.5,30.01,ENE,66,0.0,14.0,92,0.00,,,0.08,Wunderground v.1.15,2013-07-02 05:50:00,
2013-07-01 23:55:00,51.5,49.3,30.01,ENE,66,0.0,14.0,92,0.00,,,0.08,Wunderground v.1.15,2013-07-02 05:55:00,